Time;durP1;ratioP1;P1;durP2;ratioP2;P2;SDS_P1;SDS_P2;PMS_P1;PMS_P2;Temp;Humidity;BMP_temperature;BMP_pressure;BME280_temperature;BME280_humidity;BME280_pressure;Samples;Min_cycle;Max_cycle;Signal;HPM_P1;HPM_P2
2021/12/16 00:09:36;;;;;;;38.42;18.55;;;;;;;1.36;66.32;95920.84;5046118;28;20424;-77
2021/12/16 00:33:44;;;;;;;35.80;19.02;;;;;;;1.39;65.57;95932.56;5055963;28;20037;-78
2021/12/16 00:36:10;;;;;;;31.88;17.40;;;;;;;1.41;65.48;95922.97;5059844;28;20064;-78
2021/12/16 00:38:36;;;;;;;30.35;16.95;;;;;;;1.44;65.86;95922.66;5080385;28;20484;-78
2021/12/16 00:41:02;;;;;;;34.08;17.63;;;;;;;1.47;65.67;95920.66;5082220;28;20045;-78
2021/12/16 00:43:45;;;;;;;40.90;20.00;;;;;;;1.51;65.51;95923.72;5072697;28;20575;-79
2021/12/16 00:46:17;;;;;;;34.65;17.63;;;;;;;1.50;65.17;95920.34;5080123;28;20059;-77
2021/12/16 00:54:14;;;;;;;30.08;17.67;;;;;;;1.52;64.86;95933.00;5068133;28;20047;-78
2021/12/16 00:56:52;;;;;;;32.92;18.02;;;;;;;1.56;64.98;95931.75;5057889;28;20040;-78
2021/12/16 00:59:19;;;;;;;31.25;16.45;;;;;;;1.64;65.46;95938.72;5056878;28;20040;-78
2021/12/16 01:34:45;;;;;;;31.55;16.88;;;;;;;2.02;63.62;95893.91;5046325;28;20562;-77
2021/12/16 01:38:01;;;;;;;33.13;17.45;;;;;;;2.04;63.89;95905.63;5061844;28;20040;-77
2021/12/16 01:40:29;;;;;;;28.77;16.10;;;;;;;2.01;63.44;95897.44;5063426;28;20496;-77
2021/12/16 01:51:15;;;;;;;26.17;14.95;;;;;;;1.84;64.05;95891.41;4975728;28;20485;-78
2021/12/16 01:56:35;;;;;;;35.33;17.58;;;;;;;1.84;64.54;95893.16;5021136;28;20106;-77
2021/12/16 01:59:04;;;;;;;31.85;16.40;;;;;;;1.91;64.22;95887.28;5011328;28;20044;-77
2021/12/16 02:01:32;;;;;;;28.08;14.18;;;;;;;1.92;63.93;95882.94;5051421;22;20033;-79
2021/12/16 02:04:11;;;;;;;31.40;16.65;;;;;;;1.98;64.26;95883.16;5077322;28;20036;-78
2021/12/16 02:06:57;;;;;;;29.98;15.48;;;;;;;1.94;64.59;95875.91;5073272;28;20097;-78
2021/12/16 02:09:30;;;;;;;32.40;16.30;;;;;;;1.93;63.94;95885.34;5065078;28;20032;-78
2021/12/16 02:39:14;;;;;;;31.33;16.30;;;;;;;2.21;64.10;95883.41;5007391;28;20077;-79
2021/12/16 02:41:41;;;;;;;27.90;16.88;;;;;;;2.27;64.09;95887.94;5012086;28;20080;-78
2021/12/16 02:49:39;;;;;;;33.22;16.40;;;;;;;2.41;63.63;95883.97;5018800;28;20057;-78
2021/12/16 02:52:05;;;;;;;39.30;18.55;;;;;;;2.52;63.33;95888.03;5013472;28;20130;-79
2021/12/16 02:54:30;;;;;;;31.73;16.63;;;;;;;2.58;63.00;95884.84;5010486;28;20068;-78
2021/12/16 02:56:56;;;;;;;27.70;16.20;;;;;;;2.56;63.20;95881.63;5027796;28;20445;-79
2021/12/16 02:59:26;;;;;;;31.45;15.30;;;;;;;2.61;63.10;95877.66;5011639;28;20045;-78
2021/12/16 03:01:55;;;;;;;29.05;15.45;;;;;;;2.69;62.91;95887.94;5012771;28;20061;-78
2021/12/16 03:04:21;;;;;;;35.70;16.48;;;;;;;2.72;62.87;95886.81;5021437;28;20030;-78
2021/12/16 03:06:49;;;;;;;28.88;17.23;;;;;;;2.81;62.85;95877.38;5005745;28;20457;-78
2021/12/16 03:09:16;;;;;;;28.65;17.50;;;;;;;2.88;62.46;95886.84;5055531;23;20110;-79
2021/12/16 03:11:55;;;;;;;26.52;15.52;;;;;;;2.84;62.33;95866.78;5066359;28;20040;-79
2021/12/16 03:14:47;;;;;;;30.40;16.35;;;;;;;2.83;62.21;95878.00;5084226;28;20055;-79
2021/12/16 03:17:18;;;;;;;26.48;14.95;;;;;;;2.75;62.92;95881.34;5077939;28;20052;-79
2021/12/16 03:20:12;;;;;;;26.35;16.83;;;;;;;2.80;62.69;95883.47;5084731;28;20529;-79
2021/12/16 03:33:52;;;;;;;24.67;15.18;;;;;;;2.72;62.87;95891.94;5033625;23;20049;-78
2021/12/16 03:38:49;;;;;;;37.22;17.45;;;;;;;2.77;62.81;95887.16;5045107;23;20493;-79
2021/12/16 03:41:14;;;;;;;26.25;14.32;;;;;;;2.81;62.68;95890.22;5045844;28;20040;-80
2021/12/16 03:43:40;;;;;;;27.92;15.38;;;;;;;2.87;62.39;95890.38;5061287;23;20036;-78
2021/12/16 03:46:26;;;;;;;31.88;16.25;;;;;;;2.92;61.97;95897.59;5067970;28;20021;-78
2021/12/16 03:48:55;;;;;;;27.17;16.80;;;;;;;3.00;61.99;95890.72;5069558;28;20127;-80
2021/12/16 03:51:29;;;;;;;37.65;17.85;;;;;;;3.03;62.07;95899.88;5093584;28;20039;-79
2021/12/16 03:54:00;;;;;;;35.15;18.23;;;;;;;3.05;62.16;95894.56;5091679;28;20039;-81
2021/12/16 03:56:25;;;;;;;30.80;18.60;;;;;;;3.14;61.69;95893.66;5074180;28;20034;-79
2021/12/16 03:58:51;;;;;;;36.67;19.10;;;;;;;3.21;61.61;95894.59;5028776;23;20046;-78
2021/12/16 04:01:18;;;;;;;39.30;19.38;;;;;;;3.28;61.29;95893.00;4993094;28;20031;-78
2021/12/16 04:03:43;;;;;;;39.38;21.02;;;;;;;3.33;61.31;95889.97;5024482;22;20045;-77
2021/12/16 04:06:09;;;;;;;30.92;17.98;;;;;;;3.39;60.95;95890.09;5024963;23;20508;-78
2021/12/16 04:08:35;;;;;;;30.38;16.58;;;;;;;3.44;60.60;95887.88;5016292;28;20045;-79
2021/12/16 04:11:07;;;;;;;33.75;18.48;;;;;;;3.48;60.68;95884.00;4996336;28;20037;-79
2021/12/16 04:13:36;;;;;;;;;;;;;;;3.48;60.23;95885.78;5033819;22;20099;-78
2021/12/16 04:16:06;;;;;;;31.25;16.35;;;;;;;3.43;60.83;95880.31;5025107;28;19921;-79
2021/12/16 04:18:32;;;;;;;33.53;18.10;;;;;;;3.46;60.99;95875.66;5019892;28;20040;-78
2021/12/16 04:23:26;;;;;;;29.42;17.65;;;;;;;3.53;60.95;95876.59;5061842;23;20505;-80
2021/12/16 04:25:52;;;;;;;28.20;16.48;;;;;;;3.54;60.30;95870.50;5048961;28;20048;-79
2021/12/16 04:28:23;;;;;;;23.15;14.93;;;;;;;3.53;60.55;95876.59;5045726;28;20028;-79
2021/12/16 04:30:52;;;;;;;22.27;14.27;;;;;;;3.53;60.03;95868.88;5048389;28;20487;-80
2021/12/16 04:33:18;;;;;;;26.15;15.23;;;;;;;3.58;60.38;95868.44;5044954;28;20025;-79
2021/12/16 04:35:44;;;;;;;30.85;17.33;;;;;;;3.61;60.01;95868.91;5054538;28;20024;-79
2021/12/16 04:38:09;;;;;;;40.15;17.70;;;;;;;3.64;60.44;95874.69;5052758;28;20044;-77
2021/12/16 04:40:36;;;;;;;31.77;18.23;;;;;;;3.65;60.00;95863.44;5073866;28;20579;-79
2021/12/16 04:43:03;;;;;;;36.20;16.08;;;;;;;3.66;60.19;95865.03;5029732;28;20033;-82
2021/12/16 04:45:29;;;;;;;30.27;15.70;;;;;;;3.58;60.31;95865.84;5045537;28;20032;-80
2021/12/16 04:47:55;;;;;;;37.17;18.10;;;;;;;3.45;60.63;95873.25;5037993;28;20029;-81
2021/12/16 04:50:24;;;;;;;29.77;15.13;;;;;;;3.43;61.19;95870.84;5040480;28;20081;-79
2021/12/16 04:52:49;;;;;;;34.40;19.77;;;;;;;3.39;61.51;95864.41;5053796;28;20094;-80
2021/12/16 04:55:15;;;;;;;28.40;16.55;;;;;;;3.29;61.81;95874.06;5062307;28;20037;-80
2021/12/16 04:57:43;;;;;;;25.05;14.20;;;;;;;3.18;62.61;95867.44;5042085;28;20033;-80
2021/12/16 05:00:10;;;;;;;28.00;16.30;;;;;;;3.06;63.20;95867.91;5047268;28;20033;-81
2021/12/16 05:02:36;;;;;;;20.50;14.40;;;;;;;2.91;64.08;95876.25;5046468;28;20044;-81
2021/12/16 05:05:01;;;;;;;23.40;13.45;;;;;;;2.83;64.23;95860.84;5061193;28;20033;-80
2021/12/16 05:07:27;;;;;;;28.55;14.75;;;;;;;2.67;65.17;95863.38;5044202;28;20037;-81
2021/12/16 05:12:33;;;;;;;26.05;13.40;;;;;;;2.45;66.25;95863.97;5052532;22;20182;-82
2021/12/16 05:15:01;;;;;;;25.27;12.85;;;;;;;2.36;66.51;95870.81;5017537;28;20049;-79
2021/12/16 05:17:36;;;;;;;28.13;16.27;;;;;;;2.31;67.01;95867.91;5015533;28;20069;-79
2021/12/16 05:20:07;;;;;;;28.65;17.35;;;;;;;2.27;66.81;95859.69;5022514;28;20037;-80
2021/12/16 05:28:01;;;;;;;32.08;17.30;;;;;;;2.18;67.02;95863.19;4989318;28;20506;-77
2021/12/16 05:30:29;;;;;;;28.23;15.85;;;;;;;2.12;67.12;95871.53;5001086;28;20481;-76
2021/12/16 05:32:55;;;;;;;31.50;16.33;;;;;;;2.05;67.49;95865.38;5017207;28;20046;-77
2021/12/16 05:35:21;;;;;;;30.60;17.45;;;;;;;2.08;67.54;95880.47;5031494;28;20038;-79
2021/12/16 05:37:47;;;;;;;27.65;15.65;;;;;;;2.16;67.45;95869.44;5022424;28;20038;-78
2021/12/16 05:40:14;;;;;;;30.92;16.80;;;;;;;2.26;67.17;95865.78;4994236;28;20072;-79
2021/12/16 05:42:42;;;;;;;32.03;15.27;;;;;;;2.33;66.87;95869.38;5014245;28;20038;-79
2021/12/16 05:45:08;;;;;;;33.10;17.20;;;;;;;2.42;66.49;95876.13;5009822;28;20038;-79
2021/12/16 05:47:34;;;;;;;31.55;16.63;;;;;;;2.46;66.38;95870.69;5019457;28;20401;-79
2021/12/16 05:50:00;;;;;;;49.92;22.00;;;;;;;2.44;66.14;95870.03;5018543;28;20041;-79
2021/12/16 05:52:25;;;;;;;27.60;17.13;;;;;;;2.49;65.75;95870.38;5005773;28;20038;-79
2021/12/16 05:54:50;;;;;;;47.75;20.98;;;;;;;2.56;65.86;95877.28;4976220;28;20041;-79
2021/12/16 05:57:22;;;;;;;44.67;20.55;;;;;;;2.60;65.41;95880.34;4974259;28;20123;-79
2021/12/16 05:59:48;;;;;;;32.40;15.63;;;;;;;2.63;65.58;95880.06;5021999;28;20033;-79
2021/12/16 06:02:13;;;;;;;66.43;24.73;;;;;;;2.56;65.91;95872.16;5007600;28;20042;-79
2021/12/16 06:04:39;;;;;;;27.05;13.93;;;;;;;2.51;65.92;95878.72;5022351;28;20116;-80
2021/12/16 06:07:04;;;;;;;39.95;19.67;;;;;;;2.53;65.90;95879.38;5008717;28;20029;-79
2021/12/16 06:09:30;;;;;;;38.83;18.23;;;;;;;2.55;65.67;95878.25;5006990;28;20044;-79
2021/12/16 06:11:55;;;;;;;44.17;20.05;;;;;;;2.53;65.75;95882.75;4989038;28;20026;-79
2021/12/16 06:27:34;;;;;;;31.55;16.30;;;;;;;2.45;65.83;95877.59;5039040;28;20040;-77
2021/12/16 06:30:00;;;;;;;35.65;16.00;;;;;;;2.39;65.84;95866.16;5029672;28;20040;-78
2021/12/16 06:32:27;;;;;;;30.23;17.00;;;;;;;2.37;65.84;95877.56;5030755;28;20389;-78
2021/12/16 06:34:54;;;;;;;22.63;13.82;;;;;;;2.34;65.58;95868.41;5029360;28;20496;-77
2021/12/16 06:37:19;;;;;;;30.67;14.13;;;;;;;2.38;65.66;95879.97;5010360;28;20061;-77
2021/12/16 06:39:45;;;;;;;20.83;13.73;;;;;;;2.31;65.90;95873.84;5029541;28;20519;-77
2021/12/16 06:42:13;;;;;;;31.02;17.83;;;;;;;2.32;66.38;95865.19;5029263;28;20041;-78
2021/12/16 06:44:44;;;;;;;19.55;11.73;;;;;;;2.42;65.71;95870.97;5167732;23;20080;-78
2021/12/16 06:47:16;;;;;;;18.90;12.88;;;;;;;2.52;65.58;95875.19;5050849;28;20060;-78
2021/12/16 06:49:44;;;;;;;47.20;20.60;;;;;;;2.65;65.33;95865.28;5039202;28;20132;-78
2021/12/16 06:52:13;;;;;;;20.13;14.02;;;;;;;2.75;65.24;95873.66;5020752;28;20045;-78
2021/12/16 06:57:35;;;;;;;21.08;13.63;;;;;;;2.89;63.88;95875.59;5025540;23;20038;-77
2021/12/16 07:00:10;;;;;;;35.20;17.38;;;;;;;2.90;63.57;95869.50;4969671;28;20046;-77
2021/12/16 07:05:08;;;;;;;29.48;17.17;;;;;;;2.93;63.43;95874.34;5000002;28;20062;-77
2021/12/16 07:07:34;;;;;;;19.75;11.10;;;;;;;3.03;62.64;95873.38;5009173;28;20030;-77
2021/12/16 07:09:59;;;;;;;27.00;14.07;;;;;;;3.10;62.13;95874.38;5007377;28;20504;-77
2021/12/16 07:12:35;;;;;;;23.42;14.32;;;;;;;3.14;62.28;95870.50;5015153;28;20072;-76
2021/12/16 07:15:11;;;;;;;24.63;14.25;;;;;;;3.17;62.30;95872.75;5000925;28;20406;-77
2021/12/16 07:17:37;;;;;;;34.28;17.88;;;;;;;3.20;62.21;95875.00;4981703;28;20033;-77
2021/12/16 07:20:05;;;;;;;38.92;19.55;;;;;;;3.25;61.73;95867.59;5007924;28;20037;-77
2021/12/16 07:22:30;;;;;;;26.48;15.57;;;;;;;3.25;61.04;95875.31;4997750;28;20068;-77
2021/12/16 07:24:56;;;;;;;36.72;19.27;;;;;;;3.30;61.16;95870.53;5008237;28;20030;-77
2021/12/16 07:27:21;;;;;;;33.22;19.67;;;;;;;3.39;60.87;95877.25;4981667;28;20505;-77
2021/12/16 07:29:46;;;;;;;35.67;22.60;;;;;;;3.42;60.68;95876.97;4999703;28;20045;-77
2021/12/16 07:32:12;;;;;;;44.13;23.90;;;;;;;3.48;60.91;95871.16;4979691;28;20046;-77
2021/12/16 07:34:37;;;;;;;25.98;15.93;;;;;;;3.56;59.72;95878.03;4998347;28;20034;-77
2021/12/16 07:37:06;;;;;;;44.88;21.77;;;;;;;3.52;60.15;95880.16;4982427;28;20069;-77
2021/12/16 07:39:38;;;;;;;35.42;17.92;;;;;;;3.60;59.85;95876.78;4999297;28;20034;-77
2021/12/16 07:42:05;;;;;;;16.15;11.10;;;;;;;3.58;59.66;95884.66;5008717;28;20041;-77
2021/12/16 07:44:32;;;;;;;20.17;12.93;;;;;;;3.60;59.59;95880.16;4998901;28;20064;-77
2021/12/16 07:46:59;;;;;;;29.92;17.60;;;;;;;3.64;60.00;95880.63;5000075;28;20413;-77
2021/12/16 07:49:27;;;;;;;37.78;21.75;;;;;;;3.70;59.87;95884.31;4985412;28;20447;-77
2021/12/16 07:51:53;;;;;;;33.78;20.33;;;;;;;3.80;59.84;95882.38;5012298;28;20279;-77
2021/12/16 07:54:19;;;;;;;20.08;12.15;;;;;;;3.83;59.40;95884.63;5011568;28;20469;-77
2021/12/16 07:56:46;;;;;;;17.25;11.90;;;;;;;3.81;59.82;95884.78;5320061;23;20106;-77
2021/12/16 07:59:11;;;;;;;23.70;15.20;;;;;;;3.84;59.66;95883.66;5051873;28;20033;-77
2021/12/16 08:01:38;;;;;;;24.25;14.93;;;;;;;3.83;60.04;95879.47;5052292;28;20029;-77
2021/12/16 08:04:04;;;;;;;24.88;17.15;;;;;;;3.78;60.04;95884.31;5050426;28;20029;-77
2021/12/16 08:06:44;;;;;;;30.55;20.25;;;;;;;3.79;60.79;95885.91;5034507;28;20035;-78
2021/12/16 08:09:10;;;;;;;33.15;21.38;;;;;;;3.72;60.97;95890.09;5007461;28;20193;-77
2021/12/16 08:11:37;;;;;;;31.17;18.75;;;;;;;3.70;61.01;95887.69;5012217;28;20413;-77
2021/12/16 08:14:03;;;;;;;25.30;16.30;;;;;;;3.73;60.96;95894.28;5026140;22;20091;-77
2021/12/16 08:16:29;;;;;;;35.05;19.90;;;;;;;3.77;61.26;95898.13;5041751;28;20041;-77
2021/12/16 08:19:02;;;;;;;25.42;16.48;;;;;;;3.81;60.56;95895.06;5039963;28;20083;-76
2021/12/16 08:21:29;;;;;;;;;;;;;;;3.81;61.18;95889.13;5040476;28;20117;-77
2021/12/16 08:24:01;;;;;;;32.72;16.73;;;;;;;3.86;61.31;95886.84;5039919;28;19917;-77
2021/12/16 08:26:27;;;;;;;34.10;18.58;;;;;;;3.92;60.79;95887.03;5039478;28;20033;-77
2021/12/16 08:28:54;;;;;;;42.35;23.20;;;;;;;3.99;60.57;95889.72;5040849;28;20158;-77
2021/12/16 08:31:20;;;;;;;29.73;17.45;;;;;;;4.08;60.46;95885.38;5023464;28;20029;-77
2021/12/16 08:33:46;;;;;;;34.00;18.40;;;;;;;4.18;60.59;95886.78;5041508;28;20148;-77
2021/12/16 08:36:13;;;;;;;28.13;17.05;;;;;;;4.19;59.99;95880.66;5038463;28;20037;-77
2021/12/16 08:38:38;;;;;;;20.27;13.70;;;;;;;4.21;60.50;95883.06;5039692;28;20025;-76
2021/12/16 08:41:19;;;;;;;45.30;22.73;;;;;;;4.26;60.82;95882.59;5040916;28;20045;-77
2021/12/16 08:43:45;;;;;;;28.73;16.55;;;;;;;4.28;60.30;95885.81;5025370;28;20043;-77
2021/12/16 08:46:12;;;;;;;28.00;15.30;;;;;;;4.27;60.34;95886.78;5040724;28;20041;-77
2021/12/16 08:48:42;;;;;;;38.28;20.35;;;;;;;4.37;59.95;95884.78;5040257;28;20033;-77
2021/12/16 08:51:08;;;;;;;22.40;14.77;;;;;;;4.42;59.50;95882.53;5040344;28;20025;-76
2021/12/16 08:53:35;;;;;;;37.97;21.75;;;;;;;4.48;60.07;95894.72;5005809;28;20757;-76
2021/12/16 08:56:00;;;;;;;19.58;13.10;;;;;;;4.42;59.89;95882.53;5038199;28;20030;-75
2021/12/16 08:58:26;;;;;;;32.63;18.20;;;;;;;4.46;60.14;95874.28;5020380;28;20447;-76
2021/12/16 09:00:57;;;;;;;23.85;13.27;;;;;;;4.54;58.99;95876.03;5166096;22;20120;-76
2021/12/16 09:03:23;;;;;;;16.83;10.73;;;;;;;4.51;58.83;95871.22;5011146;28;20149;-77
2021/12/16 09:05:49;;;;;;;21.02;12.60;;;;;;;4.53;58.60;95858.97;5011334;28;20058;-78
2021/12/16 09:08:14;;;;;;;26.33;15.75;;;;;;;4.57;58.38;95860.25;5011359;28;20370;-78
2021/12/16 09:10:40;;;;;;;23.30;16.23;;;;;;;4.57;58.02;95857.69;5011609;28;20034;-77
2021/12/16 09:13:09;;;;;;;10.30;8.52;;;;;;;4.43;58.69;95863.53;4999674;28;20037;-76
2021/12/16 09:16:24;;;;;;;12.55;8.75;;;;;;;4.31;59.47;95849.41;5010091;28;20406;-77
2021/12/16 09:18:49;;;;;;;13.95;9.90;;;;;;;4.18;60.09;95850.75;5007318;28;20516;-77
2021/12/16 09:21:18;;;;;;;24.73;13.93;;;;;;;4.08;59.75;95847.56;5011420;28;20565;-77
2021/12/16 09:23:44;;;;;;;34.83;19.27;;;;;;;4.08;60.05;95847.56;5010070;28;20077;-77
2021/12/16 09:26:11;;;;;;;13.45;9.18;;;;;;;4.00;60.15;95842.44;5008726;28;20048;-77
2021/12/16 09:28:37;;;;;;;16.40;10.55;;;;;;;4.03;60.11;95847.25;5010454;28;20042;-77
2021/12/16 09:31:04;;;;;;;15.65;9.65;;;;;;;3.99;60.39;95843.41;5009264;28;20033;-77
2021/12/16 09:33:30;;;;;;;14.05;8.48;;;;;;;3.94;60.04;95843.13;5009272;28;20026;-77
2021/12/16 09:41:01;;;;;;;16.63;10.00;;;;;;;3.78;60.72;95838.00;5103906;23;20076;-77
2021/12/16 09:43:32;;;;;;;15.60;10.57;;;;;;;3.61;61.57;95832.91;5017854;28;20029;-77
2021/12/16 09:46:00;;;;;;;13.20;9.25;;;;;;;3.47;61.78;95836.13;5016776;28;20665;-77
2021/12/16 09:48:25;;;;;;;14.23;10.05;;;;;;;3.38;62.27;95841.41;5014895;28;20033;-77
2021/12/16 09:50:51;;;;;;;13.27;9.27;;;;;;;3.42;62.52;95828.09;5007544;28;20875;-77
2021/12/16 09:53:20;;;;;;;9.55;7.85;;;;;;;3.42;63.04;95838.38;4999084;28;20480;-77
2021/12/16 09:55:56;;;;;;;8.93;7.10;;;;;;;3.42;62.42;95833.25;5016566;28;20036;-77
2021/12/16 09:58:22;;;;;;;12.27;7.97;;;;;;;3.38;63.08;95826.81;4987674;28;20041;-77
2021/12/16 10:00:47;;;;;;;8.50;7.53;;;;;;;3.41;63.23;95841.91;5018961;28;20045;-77
2021/12/16 10:03:12;;;;;;;16.17;9.75;;;;;;;3.48;63.30;95827.44;5018341;28;20101;-77
2021/12/16 10:05:39;;;;;;;8.35;6.85;;;;;;;3.43;62.78;95824.56;5026859;28;20037;-77
2021/12/16 10:08:05;;;;;;;14.93;9.90;;;;;;;3.40;63.56;95830.00;5010537;28;20022;-77
2021/12/16 10:10:33;;;;;;;14.38;11.10;;;;;;;3.38;62.81;95824.22;5019090;28;20453;-77
2021/12/16 10:13:01;;;;;;;16.77;12.40;;;;;;;3.39;63.42;95825.84;5020181;28;20033;-76
2021/12/16 10:18:06;;;;;;;9.73;8.18;;;;;;;3.37;63.46;95819.25;5020391;28;20429;-78
2021/12/16 10:20:33;;;;;;;16.70;12.10;;;;;;;3.36;63.58;95813.31;5017756;28;20038;-76
2021/12/16 10:23:23;;;;;;;19.02;11.15;;;;;;;3.40;63.69;95809.44;5019820;28;20120;-76
2021/12/16 10:25:59;;;;;;;24.60;14.07;;;;;;;3.37;63.45;95803.81;5018508;28;20109;-77
2021/12/16 10:28:29;;;;;;;15.50;10.82;;;;;;;3.36;64.00;95813.31;5019664;28;20037;-77
2021/12/16 10:31:09;;;;;;;6.68;6.05;;;;;;;3.28;64.08;95801.28;5019551;28;20049;-77
2021/12/16 10:33:39;;;;;;;11.98;8.82;;;;;;;3.23;64.41;95797.56;5024628;28;20057;-77
2021/12/16 10:36:16;;;;;;;12.88;8.95;;;;;;;3.15;64.81;95795.81;5019946;28;20033;-77
2021/12/16 10:38:59;;;;;;;8.18;6.50;;;;;;;3.14;64.74;95793.41;5018255;28;20041;-76
2021/12/16 10:41:27;;;;;;;;;;;;;;;3.11;65.16;95793.75;5019980;28;20037;-76
2021/12/16 10:43:59;;;;;;;18.42;11.80;;;;;;;3.09;65.08;95793.06;5020343;28;19964;-77
2021/12/16 10:46:29;;;;;;;14.95;9.68;;;;;;;3.14;65.03;95789.06;5001574;28;20159;-76
2021/12/16 10:49:00;;;;;;;19.50;12.15;;;;;;;3.18;65.03;95789.56;5019189;28;20029;-76
2021/12/16 10:51:31;;;;;;;19.75;13.27;;;;;;;3.20;65.14;95788.41;5017787;28;20034;-76
2021/12/16 10:53:59;;;;;;;27.30;16.02;;;;;;;3.26;65.28;95781.84;5015971;28;20381;-76
2021/12/16 10:57:04;;;;;;;19.52;12.75;;;;;;;3.41;64.71;95787.09;5016014;28;20711;-76
2021/12/16 10:59:43;;;;;;;19.08;11.52;;;;;;;3.47;63.69;95787.28;5013882;28;20063;-78
2021/12/16 11:02:18;;;;;;;17.15;9.65;;;;;;;3.66;63.21;95780.16;5035380;28;20088;-78
2021/12/16 11:04:45;;;;;;;15.73;11.30;;;;;;;3.72;63.33;95774.34;5042119;28;20053;-77
2021/12/16 11:07:10;;;;;;;24.60;13.80;;;;;;;3.80;62.37;95771.75;5015995;28;20377;-77
2021/12/16 11:09:41;;;;;;;21.48;14.30;;;;;;;3.78;62.52;95771.13;5034443;28;20040;-78
2021/12/16 11:12:31;;;;;;;12.70;9.98;;;;;;;3.79;62.23;95773.53;5018540;28;20382;-80
2021/12/16 11:15:13;;;;;;;15.85;11.32;;;;;;;3.77;62.44;95770.31;5022123;28;20109;-78
2021/12/16 11:17:47;;;;;;;14.00;10.38;;;;;;;3.76;61.98;95768.72;5002178;28;20425;-78
2021/12/16 11:20:17;;;;;;;17.05;12.45;;;;;;;3.79;61.51;95772.72;5042114;28;20049;-78
2021/12/16 11:22:43;;;;;;;17.15;12.02;;;;;;;3.82;61.60;95762.09;5018016;28;20112;-78
2021/12/16 11:25:19;;;;;;;22.20;14.15;;;;;;;3.89;61.79;95763.81;5021856;28;20184;-78
2021/12/16 11:27:49;;;;;;;21.63;14.10;;;;;;;3.95;62.36;95762.38;5018400;28;20065;-78
2021/12/16 11:30:44;;;;;;;17.63;12.55;;;;;;;4.00;61.36;95759.28;5021365;28;20033;-78
2021/12/16 11:33:18;;;;;;;15.52;11.63;;;;;;;4.09;61.47;95760.88;5017338;28;20124;-78
2021/12/16 11:35:46;;;;;;;31.98;17.10;;;;;;;4.15;61.42;95768.72;5021638;28;20052;-78
2021/12/16 11:38:33;;;;;;;20.40;13.68;;;;;;;4.14;60.56;95761.16;5020474;28;20420;-78
2021/12/16 11:41:03;;;;;;;23.70;13.23;;;;;;;4.12;60.55;95756.19;5023084;28;20112;-78
2021/12/16 11:43:37;;;;;;;18.05;11.75;;;;;;;4.11;61.05;95759.72;5031114;23;20108;-78
2021/12/16 11:46:04;;;;;;;13.48;10.05;;;;;;;4.14;60.47;95751.66;5042780;28;20064;-78
2021/12/16 11:48:32;;;;;;;24.85;13.68;;;;;;;4.15;60.13;95753.25;5052936;28;20052;-78
2021/12/16 11:51:09;;;;;;;18.25;11.25;;;;;;;4.11;60.65;95761.50;5027669;28;20518;-78
2021/12/16 11:53:37;;;;;;;26.73;16.75;;;;;;;4.04;60.77;95753.63;5069543;28;20468;-78
2021/12/16 11:56:02;;;;;;;39.30;26.52;;;;;;;4.05;61.68;95762.16;5042311;28;20489;-78
2021/12/16 11:58:31;;;;;;;22.98;14.10;;;;;;;4.04;60.90;95751.06;5044631;28;20123;-78
2021/12/16 12:00:58;;;;;;;13.68;10.30;;;;;;;4.02;60.29;95753.00;5063226;28;20039;-78
2021/12/16 12:03:26;;;;;;;18.75;11.18;;;;;;;4.06;60.59;95749.13;5060382;28;20044;-78
2021/12/16 12:05:53;;;;;;;28.45;14.88;;;;;;;4.05;61.06;95757.00;5045781;28;20037;-78
2021/12/16 12:08:23;;;;;;;31.10;18.85;;;;;;;4.04;60.85;95748.47;5067963;28;20472;-78
2021/12/16 12:11:06;;;;;;;34.20;20.88;;;;;;;4.04;60.95;95740.75;5069629;28;20253;-78
2021/12/16 12:13:37;;;;;;;29.45;17.98;;;;;;;4.10;60.46;95742.69;5060694;28;20042;-77
2021/12/16 12:16:08;;;;;;;29.73;19.15;;;;;;;4.13;61.19;95739.75;5052521;28;20047;-77
2021/12/16 12:18:34;;;;;;;29.63;21.95;;;;;;;4.07;61.13;95745.59;5058734;28;20068;-77
2021/12/16 12:21:23;;;;;;;50.13;25.77;;;;;;;4.13;61.56;95755.22;5060475;28;20048;-77
2021/12/16 12:23:56;;;;;;;22.73;14.00;;;;;;;4.19;61.21;95751.16;5060570;28;20126;-77
2021/12/16 12:26:22;;;;;;;19.33;13.48;;;;;;;4.19;61.32;95744.22;5061148;28;20043;-77
2021/12/16 12:28:54;;;;;;;38.65;27.13;;;;;;;4.28;61.43;95746.78;5044064;28;20044;-78
2021/12/16 12:31:21;;;;;;;37.92;23.88;;;;;;;4.32;60.69;95742.88;5060332;28;20090;-77
2021/12/16 12:33:48;;;;;;;36.50;24.20;;;;;;;4.29;61.03;95748.38;5041077;28;20048;-77
2021/12/16 12:36:16;;;;;;;32.97;19.48;;;;;;;4.24;61.47;95745.50;5043287;28;20037;-77
2021/12/16 12:38:42;;;;;;;29.42;18.02;;;;;;;4.22;61.93;95754.19;5060888;28;20385;-77
2021/12/16 12:41:08;;;;;;;26.48;14.85;;;;;;;4.21;61.12;95757.72;5043860;28;20046;-77
2021/12/16 12:43:33;;;;;;;16.95;10.05;;;;;;;4.16;61.15;95766.94;5060467;28;20064;-77
2021/12/16 12:46:05;;;;;;;14.38;10.02;;;;;;;4.07;61.93;95761.03;5043465;28;20130;-77
2021/12/16 12:48:35;;;;;;;14.90;10.88;;;;;;;4.03;62.72;95754.59;5059379;28;20036;-77
2021/12/16 12:51:00;;;;;;;13.20;9.32;;;;;;;4.04;67.99;95747.69;5053974;28;20675;-78
2021/12/16 12:53:31;;;;;;;11.80;9.30;;;;;;;4.08;66.54;95752.34;5072147;28;20056;-78
2021/12/16 12:56:07;;;;;;;14.68;9.60;;;;;;;4.16;65.47;95757.44;5059800;28;20097;-78
2021/12/16 12:58:36;;;;;;;27.02;11.25;;;;;;;4.17;66.38;95746.16;5085512;28;20048;-78
2021/12/16 13:01:03;;;;;;;18.08;11.38;;;;;;;4.21;64.48;95747.44;5068171;28;20033;-78
2021/12/16 13:03:37;;;;;;;18.42;11.13;;;;;;;4.28;64.83;95744.19;5051994;28;20064;-78
2021/12/16 13:06:08;;;;;;;17.05;11.52;;;;;;;4.28;64.28;95749.34;5064448;28;20043;-79
2021/12/16 13:08:36;;;;;;;24.65;15.25;;;;;;;4.23;63.23;95744.72;5055243;28;20488;-79
2021/12/16 13:11:11;;;;;;;23.83;15.13;;;;;;;4.26;63.92;95746.94;5073516;28;20040;-79
2021/12/16 13:13:50;;;;;;;49.78;30.27;;;;;;;4.28;62.25;95749.34;5067235;28;20040;-79
2021/12/16 13:27:37;;;;;;;22.38;12.38;;;;;;;4.34;64.49;95746.09;5048348;28;20087;-79
2021/12/16 13:30:18;;;;;;;16.95;10.35;;;;;;;4.37;63.74;95740.59;5062553;28;20041;-79
2021/12/16 13:33:13;;;;;;;17.17;11.68;;;;;;;4.27;63.56;95745.16;5055514;28;20043;-78
2021/12/16 13:35:47;;;;;;;15.15;10.77;;;;;;;4.27;63.81;95742.59;5047333;28;20040;-79
2021/12/16 13:38:13;;;;;;;21.60;12.77;;;;;;;4.21;63.00;95747.44;5053304;28;20535;-79
2021/12/16 13:40:40;;;;;;;31.27;17.27;;;;;;;4.13;63.53;95739.75;5058441;28;20029;-78
2021/12/16 13:43:15;;;;;;;35.45;16.75;;;;;;;4.14;62.73;95746.50;5063104;28;20055;-79
2021/12/16 13:45:54;;;;;;;32.05;19.45;;;;;;;4.13;63.09;95744.91;5062961;28;20036;-79
2021/12/16 14:10:15;;;;;;;25.92;15.70;;;;;;;3.74;61.75;95759.53;4979034;28;20129;-78
2021/12/16 14:47:16;;;;;;;31.20;18.27;;;;;;;3.73;61.45;95775.94;4978166;28;20054;-76
2021/12/16 14:49:47;;;;;;;27.33;14.07;;;;;;;3.71;61.32;95777.88;4978040;28;20043;-76
2021/12/16 14:52:26;;;;;;;24.10;13.65;;;;;;;3.67;60.81;95769.69;4979343;28;20477;-76
2021/12/16 14:54:55;;;;;;;33.85;22.08;;;;;;;3.68;61.94;95770.50;4977858;28;20108;-76
2021/12/16 14:57:33;;;;;;;32.65;19.73;;;;;;;3.74;61.74;95780.13;4978828;28;20456;-76
2021/12/16 14:59:58;;;;;;;47.17;24.98;;;;;;;3.80;61.43;95774.31;4978928;28;20038;-76
2021/12/16 15:02:29;;;;;;;51.33;27.27;;;;;;;3.81;60.88;95786.22;4961778;28;20050;-76
2021/12/16 15:04:54;;;;;;;51.85;24.25;;;;;;;3.86;60.68;95774.44;4979231;28;20126;-77
2021/12/16 15:07:21;;;;;;;57.20;29.23;;;;;;;3.89;60.94;95774.13;4979400;28;20039;-76
2021/12/16 15:09:46;;;;;;;46.42;24.50;;;;;;;3.92;60.70;95778.94;4977669;28;20049;-76
2021/12/16 15:12:46;;;;;;;55.05;29.75;;;;;;;3.95;59.89;95777.81;4979129;28;20445;-76
2021/12/16 15:42:50;;;;;;;59.78;34.92;;;;;;;3.98;60.81;95792.13;4978768;28;20101;-77
2021/12/16 15:45:23;;;;;;;60.38;33.67;;;;;;;3.99;60.41;95789.38;4979243;28;20045;-76
2021/12/16 15:47:59;;;;;;;69.00;33.38;;;;;;;4.04;60.81;95794.00;4995416;28;20125;-76
2021/12/16 15:50:29;;;;;;;64.53;33.50;;;;;;;4.05;60.16;95788.69;4992289;28;20034;-75
2021/12/16 15:52:57;;;;;;;86.13;41.55;;;;;;;4.10;60.32;95801.88;4975540;28;20062;-76
2021/12/16 15:55:25;;;;;;;58.28;33.00;;;;;;;4.14;59.99;95810.06;4961632;28;20063;-75
2021/12/16 15:57:51;;;;;;;66.68;36.17;;;;;;;4.14;60.01;95803.16;4979833;28;20184;-76